sensor_id;sensor_type;location;lat;lon;timestamp;pressure;altitude;pressure_sealevel;temperature;humidity
29467;BME280;60968;37.490;-122.288;2023-02-01T00:02:52;99186.69;;;12.08;24.51
29467;BME280;60968;37.490;-122.288;2023-02-01T00:05:59;99188.53;;;12.03;24.47
29467;BME280;60968;37.490;-122.288;2023-02-01T00:09:00;99189.47;;;11.98;24.53
29467;BME280;60968;37.490;-122.288;2023-02-01T00:12:02;99188.63;;;11.96;24.12
29467;BME280;60968;37.490;-122.288;2023-02-01T00:15:03;99191.44;;;11.82;24.52
29467;BME280;60968;37.490;-122.288;2023-02-01T00:18:04;99188.97;;;11.75;24.43
29467;BME280;60968;37.490;-122.288;2023-02-01T00:21:05;99191.84;;;11.58;26.36
29467;BME280;60968;37.490;-122.288;2023-02-01T00:24:06;99192.97;;;11.40;25.51
29467;BME280;60968;37.490;-122.288;2023-02-01T00:27:07;99198.19;;;11.40;25.12
29467;BME280;60968;37.490;-122.288;2023-02-01T00:30:09;99199.28;;;11.23;27.22
29467;BME280;60968;37.490;-122.288;2023-02-01T00:33:10;99204.88;;;10.97;28.85
29467;BME280;60968;37.490;-122.288;2023-02-01T00:36:12;99215.56;;;10.72;31.56
29467;BME280;60968;37.490;-122.288;2023-02-01T00:39:13;99214.97;;;10.49;30.39
29467;BME280;60968;37.490;-122.288;2023-02-01T00:42:14;99208.16;;;10.30;31.34
29467;BME280;60968;37.490;-122.288;2023-02-01T00:45:15;99212.66;;;10.16;30.67
29467;BME280;60968;37.490;-122.288;2023-02-01T00:48:17;99211.91;;;10.03;30.56
29467;BME280;60968;37.490;-122.288;2023-02-01T00:51:20;99219.78;;;9.94;31.83
29467;BME280;60968;37.490;-122.288;2023-02-01T00:54:21;99223.34;;;9.82;32.63
29467;BME280;60968;37.490;-122.288;2023-02-01T00:57:22;99224.31;;;9.69;32.20
29467;BME280;60968;37.490;-122.288;2023-02-01T01:00:23;99220.06;;;9.57;33.10
29467;BME280;60968;37.490;-122.288;2023-02-01T01:03:26;99227.06;;;9.46;33.19
29467;BME280;60968;37.490;-122.288;2023-02-01T01:06:29;99220.22;;;9.35;33.96
29467;BME280;60968;37.490;-122.288;2023-02-01T01:09:31;99224.59;;;9.27;34.25
29467;BME280;60968;37.490;-122.288;2023-02-01T01:12:31;99228.09;;;9.15;34.90
29467;BME280;60968;37.490;-122.288;2023-02-01T01:15:37;99229.88;;;9.04;34.45
29467;BME280;60968;37.490;-122.288;2023-02-01T01:18:38;99241.16;;;9.04;34.37
29467;BME280;60968;37.490;-122.288;2023-02-01T01:21:39;99243.75;;;9.01;33.72
29467;BME280;60968;37.490;-122.288;2023-02-01T01:24:40;99246.38;;;8.93;34.15
29467;BME280;60968;37.490;-122.288;2023-02-01T01:27:40;99245.59;;;8.79;34.42
29467;BME280;60968;37.490;-122.288;2023-02-01T01:30:41;99240.38;;;8.73;34.23
29467;BME280;60968;37.490;-122.288;2023-02-01T01:33:42;99243.03;;;8.62;33.43
29467;BME280;60968;37.490;-122.288;2023-02-01T01:36:43;99249.94;;;8.60;32.64
29467;BME280;60968;37.490;-122.288;2023-02-01T01:39:44;99249.97;;;8.54;31.84
29467;BME280;60968;37.490;-122.288;2023-02-01T01:42:45;99246.50;;;8.49;31.35
29467;BME280;60968;37.490;-122.288;2023-02-01T01:45:46;99237.88;;;8.47;30.20
29467;BME280;60968;37.490;-122.288;2023-02-01T01:49:11;99240.44;;;8.45;30.50
29467;BME280;60968;37.490;-122.288;2023-02-01T01:52:13;99246.50;;;8.36;31.43
29467;BME280;60968;37.490;-122.288;2023-02-01T01:55:17;99246.50;;;8.24;32.33
29467;BME280;60968;37.490;-122.288;2023-02-01T01:58:22;99245.66;;;8.19;32.14
29467;BME280;60968;37.490;-122.288;2023-02-01T02:01:24;99252.59;;;8.20;31.34
29467;BME280;60968;37.490;-122.288;2023-02-01T02:04:25;99261.22;;;8.45;28.26
29467;BME280;60968;37.490;-122.288;2023-02-01T02:07:30;99256.00;;;8.68;26.75
29467;BME280;60968;37.490;-122.288;2023-02-01T02:10:32;99259.44;;;8.70;27.40
29467;BME280;60968;37.490;-122.288;2023-02-01T02:13:39;99253.41;;;8.68;28.86
29467;BME280;60968;37.490;-122.288;2023-02-01T02:27:00;99280.28;;;8.27;33.88
29467;BME280;60968;37.490;-122.288;2023-02-01T02:40:52;99275.94;;;8.29;35.63
29467;BME280;60968;37.490;-122.288;2023-02-01T02:43:58;99278.53;;;8.28;35.21
29467;BME280;60968;37.490;-122.288;2023-02-01T02:47:06;99281.13;;;8.24;34.44
29467;BME280;60968;37.490;-122.288;2023-02-01T02:50:28;99275.06;;;8.21;34.38
29467;BME280;60968;37.490;-122.288;2023-02-01T02:53:47;99282.84;;;8.21;33.96
29467;BME280;60968;37.490;-122.288;2023-02-01T02:56:50;99277.66;;;8.08;34.26
29467;BME280;60968;37.490;-122.288;2023-02-01T02:59:53;99285.47;;;7.95;34.36
29467;BME280;60968;37.490;-122.288;2023-02-01T03:02:56;99293.22;;;7.90;33.68
29467;BME280;60968;37.490;-122.288;2023-02-01T03:05:57;99287.19;;;7.83;33.31
29467;BME280;60968;37.490;-122.288;2023-02-01T03:08:58;99288.88;;;7.78;33.62
29467;BME280;60968;37.490;-122.288;2023-02-01T03:12:11;99292.34;;;7.74;34.00
29467;BME280;60968;37.490;-122.288;2023-02-01T03:15:13;99291.44;;;7.67;34.38
29467;BME280;60968;37.490;-122.288;2023-02-01T03:18:22;99294.94;;;7.68;34.29
29467;BME280;60968;37.490;-122.288;2023-02-01T03:21:51;99296.63;;;7.67;35.27
29467;BME280;60968;37.490;-122.288;2023-02-01T03:24:55;99300.97;;;7.70;34.88
29467;BME280;60968;37.490;-122.288;2023-02-01T03:28:06;99297.53;;;7.68;35.49
29467;BME280;60968;37.490;-122.288;2023-02-01T03:31:08;99300.09;;;7.66;35.60
29467;BME280;60968;37.490;-122.288;2023-02-01T03:34:11;99297.50;;;7.63;35.89
29467;BME280;60968;37.490;-122.288;2023-02-01T03:37:17;99296.63;;;7.64;35.91
29467;BME280;60968;37.490;-122.288;2023-02-01T03:40:22;99303.56;;;7.65;36.20
29467;BME280;60968;37.490;-122.288;2023-02-01T03:43:27;99302.72;;;7.68;34.86
29467;BME280;60968;37.490;-122.288;2023-02-01T03:46:56;99298.38;;;7.75;34.21
29467;BME280;60968;37.490;-122.288;2023-02-01T03:50:19;99297.53;;;7.74;34.22
29467;BME280;60968;37.490;-122.288;2023-02-01T03:53:24;99297.53;;;7.77;34.98
29467;BME280;60968;37.490;-122.288;2023-02-01T03:56:29;99310.50;;;7.72;36.03
29467;BME280;60968;37.490;-122.288;2023-02-01T03:59:30;99307.00;;;7.61;35.79
29467;BME280;60968;37.490;-122.288;2023-02-01T04:02:31;99318.22;;;7.52;37.15
29467;BME280;60968;37.490;-122.288;2023-02-01T04:05:33;99318.19;;;7.49;35.90
29467;BME280;60968;37.490;-122.288;2023-02-01T04:08:34;99323.38;;;7.49;36.33
29467;BME280;60968;37.490;-122.288;2023-02-01T04:11:35;99327.72;;;7.49;35.56
29467;BME280;60968;37.490;-122.288;2023-02-01T04:14:36;99326.88;;;7.48;36.45
29467;BME280;60968;37.490;-122.288;2023-02-01T04:17:37;99329.44;;;7.47;35.76
29467;BME280;60968;37.490;-122.288;2023-02-01T04:20:38;99334.59;;;7.44;36.93
29467;BME280;60968;37.490;-122.288;2023-02-01T04:23:42;99325.13;;;7.47;35.49
29467;BME280;60968;37.490;-122.288;2023-02-01T04:26:43;99329.44;;;7.48;35.78
29467;BME280;60968;37.490;-122.288;2023-02-01T04:29:43;99331.16;;;7.43;36.72
29467;BME280;60968;37.490;-122.288;2023-02-01T04:32:44;99337.19;;;7.36;36.78
29467;BME280;60968;37.490;-122.288;2023-02-01T04:35:45;99329.41;;;7.33;38.71
29467;BME280;60968;37.490;-122.288;2023-02-01T04:38:46;99329.34;;;7.30;39.28
29467;BME280;60968;37.490;-122.288;2023-02-01T04:41:49;99335.41;;;7.27;39.37
29467;BME280;60968;37.490;-122.288;2023-02-01T04:44:50;99333.66;;;7.21;39.55
29467;BME280;60968;37.490;-122.288;2023-02-01T04:47:51;99341.41;;;7.17;40.32
29467;BME280;60968;37.490;-122.288;2023-02-01T04:50:52;99340.53;;;7.13;41.63
29467;BME280;60968;37.490;-122.288;2023-02-01T04:53:53;99340.53;;;7.13;42.48
29467;BME280;60968;37.490;-122.288;2023-02-01T04:56:54;99337.94;;;7.10;42.25
29467;BME280;60968;37.490;-122.288;2023-02-01T04:59:55;99334.44;;;7.07;42.77
29467;BME280;60968;37.490;-122.288;2023-02-01T05:02:56;99330.13;;;7.06;43.09
29467;BME280;60968;37.490;-122.288;2023-02-01T05:05:56;99334.44;;;7.05;42.95
29467;BME280;60968;37.490;-122.288;2023-02-01T05:08:57;99332.69;;;7.06;43.52
29467;BME280;60968;37.490;-122.288;2023-02-01T05:11:58;99326.66;;;7.02;44.15
29467;BME280;60968;37.490;-122.288;2023-02-01T05:14:59;99325.75;;;6.95;44.70
29467;BME280;60968;37.490;-122.288;2023-02-01T05:18:00;99333.50;;;6.92;44.59
29467;BME280;60968;37.490;-122.288;2023-02-01T05:21:01;99338.66;;;6.89;45.02
29467;BME280;60968;37.490;-122.288;2023-02-01T05:24:02;99339.53;;;6.91;45.32
29467;BME280;60968;37.490;-122.288;2023-02-01T05:27:03;99332.63;;;6.93;44.48
29467;BME280;60968;37.490;-122.288;2023-02-01T05:30:05;99338.69;;;6.94;44.70
29467;BME280;60968;37.490;-122.288;2023-02-01T05:33:08;99341.31;;;6.97;45.38
29467;BME280;60968;37.490;-122.288;2023-02-01T05:36:09;99334.38;;;6.99;45.47
29467;BME280;60968;37.490;-122.288;2023-02-01T05:39:09;99341.28;;;6.92;46.22
29467;BME280;60968;37.490;-122.288;2023-02-01T05:42:13;99346.41;;;6.84;46.57
29467;BME280;60968;37.490;-122.288;2023-02-01T05:45:14;99350.66;;;6.75;47.31
29467;BME280;60968;37.490;-122.288;2023-02-01T05:48:15;99352.28;;;6.62;48.27
29467;BME280;60968;37.490;-122.288;2023-02-01T05:51:16;99360.03;;;6.54;47.63
29467;BME280;60968;37.490;-122.288;2023-02-01T05:54:17;99362.56;;;6.49;48.05
29467;BME280;60968;37.490;-122.288;2023-02-01T05:57:18;99358.25;;;6.48;48.04
29467;BME280;60968;37.490;-122.288;2023-02-01T06:00:19;99359.97;;;6.49;47.54
29467;BME280;60968;37.490;-122.288;2023-02-01T06:03:20;99365.94;;;6.42;47.56
29467;BME280;60968;37.490;-122.288;2023-02-01T06:06:21;99365.09;;;6.40;48.05
29467;BME280;60968;37.490;-122.288;2023-02-01T06:09:22;99370.25;;;6.39;47.57
29467;BME280;60968;37.490;-122.288;2023-02-01T06:12:23;99371.09;;;6.39;47.01
29467;BME280;60968;37.490;-122.288;2023-02-01T06:15:24;99372.78;;;6.34;47.93
29467;BME280;60968;37.490;-122.288;2023-02-01T06:18:25;99371.00;;;6.27;47.43
29467;BME280;60968;37.490;-122.288;2023-02-01T06:21:26;99367.56;;;6.29;47.14
29467;BME280;60968;37.490;-122.288;2023-02-01T06:24:27;99358.94;;;6.29;48.06
29467;BME280;60968;37.490;-122.288;2023-02-01T06:27:28;99354.63;;;6.28;47.87
29467;BME280;60968;37.490;-122.288;2023-02-01T06:30:28;99357.19;;;6.25;47.58
29467;BME280;60968;37.490;-122.288;2023-02-01T06:33:29;99360.63;;;6.24;48.12
29467;BME280;60968;37.490;-122.288;2023-02-01T06:36:30;99354.53;;;6.20;48.38
29467;BME280;60968;37.490;-122.288;2023-02-01T06:39:31;99361.41;;;6.15;48.46
29467;BME280;60968;37.490;-122.288;2023-02-01T06:42:32;99364.00;;;6.13;48.43
29467;BME280;60968;37.490;-122.288;2023-02-01T06:45:33;99356.22;;;6.15;48.26
29467;BME280;60968;37.490;-122.288;2023-02-01T06:48:34;99358.84;;;6.18;48.23
29467;BME280;60968;37.490;-122.288;2023-02-01T06:51:35;99359.75;;;6.23;48.32
29467;BME280;60968;37.490;-122.288;2023-02-01T06:54:36;99361.56;;;6.30;48.76
29467;BME280;60968;37.490;-122.288;2023-02-01T06:57:36;99357.25;;;6.34;49.22
29467;BME280;60968;37.490;-122.288;2023-02-01T07:00:37;99353.81;;;6.37;47.87
29467;BME280;60968;37.490;-122.288;2023-02-01T07:03:38;99358.09;;;6.31;47.60
29467;BME280;60968;37.490;-122.288;2023-02-01T07:06:40;99359.81;;;6.29;46.91
29467;BME280;60968;37.490;-122.288;2023-02-01T07:09:40;99366.66;;;6.24;46.32
29467;BME280;60968;37.490;-122.288;2023-02-01T07:12:41;99362.38;;;6.26;43.01
29467;BME280;60968;37.490;-122.288;2023-02-01T07:15:42;99367.75;;;6.52;42.17
29467;BME280;60968;37.490;-122.288;2023-02-01T07:18:44;99363.50;;;6.62;41.86
29467;BME280;60968;37.490;-122.288;2023-02-01T07:21:45;99368.66;;;6.59;42.16
29467;BME280;60968;37.490;-122.288;2023-02-01T07:24:46;99354.78;;;6.51;43.08
29467;BME280;60968;37.490;-122.288;2023-02-01T07:27:47;99358.19;;;6.42;44.79
29467;BME280;60968;37.490;-122.288;2023-02-01T07:30:48;99352.06;;;6.32;44.16
29467;BME280;60968;37.490;-122.288;2023-02-01T07:33:49;99353.81;;;6.33;44.28
29467;BME280;60968;37.490;-122.288;2023-02-01T07:36:50;99344.28;;;6.28;42.78
29467;BME280;60968;37.490;-122.288;2023-02-01T07:39:52;99347.69;;;6.27;43.79
29467;BME280;60968;37.490;-122.288;2023-02-01T07:42:54;99350.28;;;6.24;43.91
29467;BME280;60968;37.490;-122.288;2023-02-01T07:45:56;99347.69;;;6.24;44.00
29467;BME280;60968;37.490;-122.288;2023-02-01T07:48:57;99342.47;;;6.19;43.22
29467;BME280;60968;37.490;-122.288;2023-02-01T07:51:58;99339.84;;;6.16;43.54
29467;BME280;60968;37.490;-122.288;2023-02-01T07:54:59;99342.38;;;6.11;43.11
29467;BME280;60968;37.490;-122.288;2023-02-01T07:58:00;99340.69;;;6.12;43.94
29467;BME280;60968;37.490;-122.288;2023-02-01T08:01:01;99338.06;;;6.10;44.04
29467;BME280;60968;37.490;-122.288;2023-02-01T08:04:03;99338.03;;;6.07;44.25
29467;BME280;60968;37.490;-122.288;2023-02-01T08:07:04;99344.03;;;6.05;44.59
29467;BME280;60968;37.490;-122.288;2023-02-01T08:10:06;99336.28;;;6.05;43.05
29467;BME280;60968;37.490;-122.288;2023-02-01T08:13:07;99330.25;;;6.04;43.60
29467;BME280;60968;37.490;-122.288;2023-02-01T08:16:09;99330.25;;;6.06;43.54
29467;BME280;60968;37.490;-122.288;2023-02-01T08:19:11;99329.41;;;6.04;43.93
29467;BME280;60968;37.490;-122.288;2023-02-01T08:22:12;99329.38;;;6.02;44.26
29467;BME280;60968;37.490;-122.288;2023-02-01T08:25:12;99333.69;;;6.01;43.54
29467;BME280;60968;37.490;-122.288;2023-02-01T08:28:13;99331.09;;;6.01;43.33
29467;BME280;60968;37.490;-122.288;2023-02-01T08:31:16;99332.78;;;5.98;43.51
29467;BME280;60968;37.490;-122.288;2023-02-01T08:34:17;99333.59;;;5.94;42.95
29467;BME280;60968;37.490;-122.288;2023-02-01T08:37:18;99332.69;;;5.92;43.00
29467;BME280;60968;37.490;-122.288;2023-02-01T08:40:19;99324.06;;;5.91;43.46
29467;BME280;60968;37.490;-122.288;2023-02-01T08:43:20;99329.25;;;5.93;41.80
29467;BME280;60968;37.490;-122.288;2023-02-01T08:46:22;99320.75;;;6.05;41.04
29467;BME280;60968;37.490;-122.288;2023-02-01T08:49:24;99322.63;;;6.18;42.26
29467;BME280;60968;37.490;-122.288;2023-02-01T08:52:25;99330.44;;;6.26;42.29
29467;BME280;60968;37.490;-122.288;2023-02-01T08:55:26;99326.16;;;6.28;42.97
29467;BME280;60968;37.490;-122.288;2023-02-01T08:58:27;99324.31;;;6.14;43.73
29467;BME280;60968;37.490;-122.288;2023-02-01T09:01:28;99317.16;;;5.92;45.86
29467;BME280;60968;37.490;-122.288;2023-02-01T09:04:29;99321.38;;;5.80;47.41
29467;BME280;60968;37.490;-122.288;2023-02-01T09:07:30;99320.50;;;5.80;47.52
29467;BME280;60968;37.490;-122.288;2023-02-01T09:10:32;99321.47;;;5.91;47.72
29467;BME280;60968;37.490;-122.288;2023-02-01T09:13:33;99328.28;;;5.81;50.38
29467;BME280;60968;37.490;-122.288;2023-02-01T09:16:34;99324.59;;;5.58;51.17
29467;BME280;60968;37.490;-122.288;2023-02-01T09:19:35;99327.00;;;5.42;50.95
29467;BME280;60968;37.490;-122.288;2023-02-01T09:22:36;99323.59;;;5.45;50.30
29467;BME280;60968;37.490;-122.288;2023-02-01T09:25:38;99323.44;;;5.34;51.22
29467;BME280;60968;37.490;-122.288;2023-02-01T09:28:39;99322.53;;;5.27;51.41
29467;BME280;60968;37.490;-122.288;2023-02-01T09:31:40;99323.34;;;5.25;51.25
29467;BME280;60968;37.490;-122.288;2023-02-01T09:34:41;99326.00;;;5.31;48.47
29467;BME280;60968;37.490;-122.288;2023-02-01T09:37:42;99326.00;;;5.32;49.45
29467;BME280;60968;37.490;-122.288;2023-02-01T09:40:46;99320.78;;;5.26;49.50
29467;BME280;60968;37.490;-122.288;2023-02-01T09:43:56;99326.81;;;5.28;49.01
29467;BME280;60968;37.490;-122.288;2023-02-01T09:47:00;99323.41;;;5.29;49.37
29467;BME280;60968;37.490;-122.288;2023-02-01T09:50:10;99318.25;;;5.32;47.90
29467;BME280;60968;37.490;-122.288;2023-02-01T09:53:18;99322.63;;;5.38;46.59
29467;BME280;60968;37.490;-122.288;2023-02-01T09:56:33;99319.34;;;5.50;44.58
29467;BME280;60968;37.490;-122.288;2023-02-01T09:59:46;99321.97;;;5.55;44.76
29467;BME280;60968;37.490;-122.288;2023-02-01T10:02:49;99324.44;;;5.47;44.75
29467;BME280;60968;37.490;-122.288;2023-02-01T10:29:19;99323.28;;;5.20;43.93
29467;BME280;60968;37.490;-122.288;2023-02-01T10:32:22;99325.81;;;5.17;44.65
29467;BME280;60968;37.490;-122.288;2023-02-01T10:35:31;99323.25;;;5.17;45.69
29467;BME280;60968;37.490;-122.288;2023-02-01T10:38:35;99325.81;;;5.17;46.34
29467;BME280;60968;37.490;-122.288;2023-02-01T10:41:39;99336.16;;;5.17;45.87
29467;BME280;60968;37.490;-122.288;2023-02-01T10:44:43;99326.66;;;5.16;45.93
29467;BME280;60968;37.490;-122.288;2023-02-01T10:47:47;99325.78;;;5.14;45.59
29467;BME280;60968;37.490;-122.288;2023-02-01T10:51:01;99320.63;;;5.14;44.10
29467;BME280;60968;37.490;-122.288;2023-02-01T10:54:50;99315.47;;;5.14;42.62
29467;BME280;60968;37.490;-122.288;2023-02-01T10:57:32;99322.28;;;5.09;45.83
29467;BME280;60968;37.490;-122.288;2023-02-01T11:01:09;99311.03;;;5.04;49.94
29467;BME280;60968;37.490;-122.288;2023-02-01T11:04:21;99303.28;;;5.04;50.96
29467;BME280;60968;37.490;-122.288;2023-02-01T11:07:26;99304.94;;;4.98;51.08
29467;BME280;60968;37.490;-122.288;2023-02-01T11:10:39;99310.06;;;4.97;52.07
29467;BME280;60968;37.490;-122.288;2023-02-01T11:13:41;99316.88;;;4.90;52.75
29467;BME280;60968;37.490;-122.288;2023-02-01T11:16:48;99320.25;;;4.86;54.52
29467;BME280;60968;37.490;-122.288;2023-02-01T11:20:00;99304.72;;;4.83;55.14
29467;BME280;60968;37.490;-122.288;2023-02-01T11:23:01;99302.00;;;4.74;55.74
29467;BME280;60968;37.490;-122.288;2023-02-01T11:26:15;99303.69;;;4.70;56.63
29467;BME280;60968;37.490;-122.288;2023-02-01T11:29:21;99315.63;;;4.63;56.15
29467;BME280;60968;37.490;-122.288;2023-02-01T11:32:24;99307.91;;;4.65;55.91
29467;BME280;60968;37.490;-122.288;2023-02-01T11:35:28;99313.97;;;4.67;55.34
29467;BME280;60968;37.490;-122.288;2023-02-01T11:38:32;99309.63;;;4.64;55.22
29467;BME280;60968;37.490;-122.288;2023-02-01T11:41:33;99312.19;;;4.61;55.96
29467;BME280;60968;37.490;-122.288;2023-02-01T11:47:55;99314.63;;;4.54;58.61
29467;BME280;60968;37.490;-122.288;2023-02-01T12:08:32;99312.69;;;4.39;61.33
29467;BME280;60968;37.490;-122.288;2023-02-01T12:12:16;99303.22;;;4.38;61.39
29467;BME280;60968;37.490;-122.288;2023-02-01T12:22:21;99291.22;;;4.43;66.75
29467;BME280;60968;37.490;-122.288;2023-02-01T12:25:27;99299.84;;;4.42;66.62
29467;BME280;60968;37.490;-122.288;2023-02-01T12:42:03;99302.41;;;4.42;67.68
29467;BME280;60968;37.490;-122.288;2023-02-01T12:45:36;99303.31;;;4.45;70.88
29467;BME280;60968;37.490;-122.288;2023-02-01T12:48:49;99305.91;;;4.47;74.40
29467;BME280;60968;37.490;-122.288;2023-02-01T12:51:59;99313.69;;;4.49;78.08
29467;BME280;60968;37.490;-122.288;2023-02-01T12:55:27;99316.34;;;4.53;82.13
29467;BME280;60968;37.490;-122.288;2023-02-01T13:01:52;99322.34;;;4.52;83.97
29467;BME280;60968;37.490;-122.288;2023-02-01T13:05:24;99311.22;;;4.56;87.99
29467;BME280;60968;37.490;-122.288;2023-02-01T13:11:52;99311.25;;;4.58;88.83
29467;BME280;60968;37.490;-122.288;2023-02-01T13:14:58;99320.63;;;4.53;89.17
29467;BME280;60968;37.490;-122.288;2023-02-01T13:18:03;99332.63;;;4.49;90.43
29467;BME280;60968;37.490;-122.288;2023-02-01T13:21:14;99323.09;;;4.45;91.19
29467;BME280;60968;37.490;-122.288;2023-02-01T13:24:38;99325.66;;;4.42;92.20
29467;BME280;60968;37.490;-122.288;2023-02-01T13:27:41;99326.41;;;4.36;92.56
29467;BME280;60968;37.490;-122.288;2023-02-01T13:47:43;99324.59;;;4.31;91.92
29467;BME280;60968;37.490;-122.288;2023-02-01T13:50:51;99327.97;;;4.26;89.71
29467;BME280;60968;37.490;-122.288;2023-02-01T13:53:53;99325.44;;;4.29;91.55
29467;BME280;60968;37.490;-122.288;2023-02-01T13:56:54;99332.34;;;4.31;92.35
29467;BME280;60968;37.490;-122.288;2023-02-01T14:00:08;99333.22;;;4.33;91.96
29467;BME280;60968;37.490;-122.288;2023-02-01T14:03:44;99334.03;;;4.30;91.00
29467;BME280;60968;37.490;-122.288;2023-02-01T14:06:46;99339.06;;;4.21;88.34
29467;BME280;60968;37.490;-122.288;2023-02-01T14:09:47;99342.41;;;4.15;86.18
29467;BME280;60968;37.490;-122.288;2023-02-01T14:12:48;99334.53;;;4.09;81.83
29467;BME280;60968;37.490;-122.288;2023-02-01T14:19:18;99331.97;;;4.09;75.11
29467;BME280;60968;37.490;-122.288;2023-02-01T14:25:24;99336.50;;;4.22;79.51
29467;BME280;60968;37.490;-122.288;2023-02-01T14:28:27;99333.91;;;4.21;78.18
29467;BME280;60968;37.490;-122.288;2023-02-01T14:31:33;99344.25;;;4.24;77.31
29467;BME280;60968;37.490;-122.288;2023-02-01T14:34:53;99350.28;;;4.24;76.23
29467;BME280;60968;37.490;-122.288;2023-02-01T14:37:59;99354.59;;;4.24;77.11
29467;BME280;60968;37.490;-122.288;2023-02-01T14:41:29;99357.13;;;4.22;78.75
29467;BME280;60968;37.490;-122.288;2023-02-01T14:44:33;99361.47;;;4.23;80.67
29467;BME280;60968;37.490;-122.288;2023-02-01T14:47:34;99363.28;;;4.29;83.54
29467;BME280;60968;37.490;-122.288;2023-02-01T14:50:44;99362.50;;;4.35;85.36
29467;BME280;60968;37.490;-122.288;2023-02-01T14:53:47;99365.09;;;4.35;84.18
29467;BME280;60968;37.490;-122.288;2023-02-01T14:56:48;99370.19;;;4.33;83.67
29467;BME280;60968;37.490;-122.288;2023-02-01T14:59:57;99369.28;;;4.29;82.74
29467;BME280;60968;37.490;-122.288;2023-02-01T15:03:34;99366.53;;;4.19;79.84
29467;BME280;60968;37.490;-122.288;2023-02-01T15:06:43;99374.28;;;4.20;80.34
29467;BME280;60968;37.490;-122.288;2023-02-01T15:09:47;99370.81;;;4.18;80.52
29467;BME280;60968;37.490;-122.288;2023-02-01T15:12:50;99373.41;;;4.18;81.94
29467;BME280;60968;37.490;-122.288;2023-02-01T15:16:12;99375.22;;;4.24;82.96
29467;BME280;60968;37.490;-122.288;2023-02-01T15:19:13;99371.78;;;4.23;82.68
29467;BME280;60968;37.490;-122.288;2023-02-01T15:22:19;99371.81;;;4.25;81.51
29467;BME280;60968;37.490;-122.288;2023-02-01T15:25:22;99371.88;;;4.29;79.74
29467;BME280;60968;37.490;-122.288;2023-02-01T15:28:23;99367.63;;;4.33;78.79
29467;BME280;60968;37.490;-122.288;2023-02-01T15:31:44;99369.38;;;4.36;77.19
29467;BME280;60968;37.490;-122.288;2023-02-01T15:34:48;99370.28;;;4.36;76.22
29467;BME280;60968;37.490;-122.288;2023-02-01T15:37:49;99374.66;;;4.42;74.50
29467;BME280;60968;37.490;-122.288;2023-02-01T15:47:19;99379.53;;;4.77;69.28
29467;BME280;60968;37.490;-122.288;2023-02-01T15:50:21;99377.09;;;4.89;68.01
29467;BME280;60968;37.490;-122.288;2023-02-01T15:53:24;99385.00;;;5.00;65.26
29467;BME280;60968;37.490;-122.288;2023-02-01T15:56:38;99383.53;;;5.18;63.72
29467;BME280;60968;37.490;-122.288;2023-02-01T15:59:46;99390.63;;;5.34;61.30
29467;BME280;60968;37.490;-122.288;2023-02-01T16:02:58;99389.13;;;5.50;61.72
29467;BME280;60968;37.490;-122.288;2023-02-01T16:06:01;99391.03;;;5.66;60.08
29467;BME280;60968;37.490;-122.288;2023-02-01T16:09:10;99393.88;;;5.88;58.14
29467;BME280;60968;37.490;-122.288;2023-02-01T16:15:32;99390.88;;;6.29;57.15
29467;BME280;60968;37.490;-122.288;2023-02-01T16:18:32;99383.25;;;6.48;55.29
29467;BME280;60968;37.490;-122.288;2023-02-01T16:21:34;99393.75;;;6.66;53.65
29467;BME280;60968;37.490;-122.288;2023-02-01T16:24:35;99390.44;;;6.83;52.57
29467;BME280;60968;37.490;-122.288;2023-02-01T16:27:36;99393.97;;;6.94;50.55
29467;BME280;60968;37.490;-122.288;2023-02-01T16:30:37;99400.91;;;7.01;51.04
29467;BME280;60968;37.490;-122.288;2023-02-01T16:33:38;99395.72;;;6.98;52.45
29467;BME280;60968;37.490;-122.288;2023-02-01T16:36:38;99402.72;;;7.12;54.25
29467;BME280;60968;37.490;-122.288;2023-02-01T16:39:39;99402.66;;;7.07;54.95
29467;BME280;60968;37.490;-122.288;2023-02-01T16:42:40;99402.19;;;7.93;54.00
29467;BME280;60968;37.490;-122.288;2023-02-01T16:45:42;99393.06;;;11.33;45.89
29467;BME280;60968;37.490;-122.288;2023-02-01T16:48:50;99395.22;;;13.84;42.00
29467;BME280;60968;37.490;-122.288;2023-02-01T16:51:55;99391.88;;;14.16;41.22
29467;BME280;60968;37.490;-122.288;2023-02-01T16:54:57;99398.19;;;14.06;39.94
29467;BME280;60968;37.490;-122.288;2023-02-01T16:57:58;99396.41;;;15.49;39.48
29467;BME280;60968;37.490;-122.288;2023-02-01T17:00:58;99399.81;;;16.14;37.21
29467;BME280;60968;37.490;-122.288;2023-02-01T17:03:59;99404.22;;;16.14;36.29
29467;BME280;60968;37.490;-122.288;2023-02-01T17:07:00;99403.13;;;15.28;37.98
29467;BME280;60968;37.490;-122.288;2023-02-01T17:10:02;99391.34;;;16.86;35.25
29467;BME280;60968;37.490;-122.288;2023-02-01T17:13:02;99394.75;;;17.65;34.82
29467;BME280;60968;37.490;-122.288;2023-02-01T17:16:13;99390.69;;;16.26;35.42
29467;BME280;60968;37.490;-122.288;2023-02-01T17:19:19;99396.59;;;16.33;35.36
29467;BME280;60968;37.490;-122.288;2023-02-01T17:22:20;99387.25;;;16.77;35.10
29467;BME280;60968;37.490;-122.288;2023-02-01T17:25:21;99390.53;;;16.84;34.01
29467;BME280;60968;37.490;-122.288;2023-02-01T17:28:23;99390.84;;;16.48;32.28
29467;BME280;60968;37.490;-122.288;2023-02-01T17:31:23;99395.72;;;16.60;31.63
29467;BME280;60968;37.490;-122.288;2023-02-01T17:34:25;99395.28;;;15.58;29.90
29467;BME280;60968;37.490;-122.288;2023-02-01T17:37:28;99404.75;;;14.26;29.40
29467;BME280;60968;37.490;-122.288;2023-02-01T17:40:30;99406.75;;;13.73;31.43
29467;BME280;60968;37.490;-122.288;2023-02-01T17:43:31;99416.38;;;12.20;34.17
29467;BME280;60968;37.490;-122.288;2023-02-01T17:46:32;99418.31;;;11.31;34.67
29467;BME280;60968;37.490;-122.288;2023-02-01T17:49:33;99417.94;;;10.79;36.18
29467;BME280;60968;37.490;-122.288;2023-02-01T17:52:34;99411.31;;;10.29;37.52
29467;BME280;60968;37.490;-122.288;2023-02-01T17:55:37;99410.44;;;10.41;37.02